sensor_id;sensor_type;location;lat;lon;timestamp;temperature;humidity
22923;DHT22;11627;51.322;22.816;2022-09-11T00:01:24;11.50;58.80
22923;DHT22;11627;51.322;22.816;2022-09-11T00:06:19;11.60;51.30
22923;DHT22;11627;51.322;22.816;2022-09-11T00:08:46;11.70;61.10
22923;DHT22;11627;51.322;22.816;2022-09-11T00:11:20;11.40;51.30
22923;DHT22;11627;51.322;22.816;2022-09-11T00:13:48;11.40;61.40
22923;DHT22;11627;51.322;22.816;2022-09-11T00:18:52;11.60;55.00
22923;DHT22;11627;51.322;22.816;2022-09-11T00:21:20;11.60;54.60
22923;DHT22;11627;51.322;22.816;2022-09-11T00:23:46;11.70;63.40
22923;DHT22;11627;51.322;22.816;2022-09-11T00:26:19;11.70;63.50
22923;DHT22;11627;51.322;22.816;2022-09-11T00:28:46;11.60;63.50
22923;DHT22;11627;51.322;22.816;2022-09-11T00:31:16;11.70;62.30
22923;DHT22;11627;51.322;22.816;2022-09-11T00:33:43;12.00;55.00
22923;DHT22;11627;51.322;22.816;2022-09-11T00:36:13;11.30;62.90
22923;DHT22;11627;51.322;22.816;2022-09-11T00:38:42;11.70;63.10
22923;DHT22;11627;51.322;22.816;2022-09-11T00:41:20;11.60;54.40
22923;DHT22;11627;51.322;22.816;2022-09-11T00:46:41;11.70;62.60
22923;DHT22;11627;51.322;22.816;2022-09-11T00:54:36;11.80;60.00
22923;DHT22;11627;51.322;22.816;2022-09-11T00:57:07;11.60;60.00
22923;DHT22;11627;51.322;22.816;2022-09-11T00:59:38;11.60;59.60
22923;DHT22;11627;51.322;22.816;2022-09-11T01:02:07;11.90;60.80
22923;DHT22;11627;51.322;22.816;2022-09-11T01:04:38;11.80;61.60
22923;DHT22;11627;51.322;22.816;2022-09-11T01:07:04;11.90;61.30
22923;DHT22;11627;51.322;22.816;2022-09-11T01:09:32;11.60;62.20
22923;DHT22;11627;51.322;22.816;2022-09-11T01:12:09;11.40;59.10
22923;DHT22;11627;51.322;22.816;2022-09-11T01:17:30;11.90;64.90
22923;DHT22;11627;51.322;22.816;2022-09-11T01:20:45;11.40;65.70
22923;DHT22;11627;51.322;22.816;2022-09-11T01:33:36;11.50;60.50
22923;DHT22;11627;51.322;22.816;2022-09-11T01:36:16;11.40;65.80
22923;DHT22;11627;51.322;22.816;2022-09-11T01:39:01;11.80;66.10
22923;DHT22;11627;51.322;22.816;2022-09-11T01:41:42;11.80;61.50
22923;DHT22;11627;51.322;22.816;2022-09-11T01:47:19;11.70;64.00
22923;DHT22;11627;51.322;22.816;2022-09-11T01:49:57;11.60;67.00
22923;DHT22;11627;51.322;22.816;2022-09-11T01:52:31;11.60;62.40
22923;DHT22;11627;51.322;22.816;2022-09-11T01:55:04;11.70;59.20
22923;DHT22;11627;51.322;22.816;2022-09-11T01:57:49;11.90;68.40
22923;DHT22;11627;51.322;22.816;2022-09-11T02:00:20;11.40;68.20
22923;DHT22;11627;51.322;22.816;2022-09-11T02:03:15;11.70;59.90
22923;DHT22;11627;51.322;22.816;2022-09-11T02:05:49;11.70;60.00
22923;DHT22;11627;51.322;22.816;2022-09-11T02:08:39;11.60;62.50
22923;DHT22;11627;51.322;22.816;2022-09-11T02:11:11;11.50;67.80
22923;DHT22;11627;51.322;22.816;2022-09-11T02:16:50;11.80;67.90
22923;DHT22;11627;51.322;22.816;2022-09-11T02:19:35;11.60;67.50
22923;DHT22;11627;51.322;22.816;2022-09-11T02:22:01;11.60;66.90
22923;DHT22;11627;51.322;22.816;2022-09-11T02:24:27;11.80;66.70
22923;DHT22;11627;51.322;22.816;2022-09-11T02:27:05;12.00;67.30
22923;DHT22;11627;51.322;22.816;2022-09-11T02:29:32;11.90;67.20
22923;DHT22;11627;51.322;22.816;2022-09-11T02:31:59;11.70;67.00
22923;DHT22;11627;51.322;22.816;2022-09-11T02:34:27;11.70;65.80
22923;DHT22;11627;51.322;22.816;2022-09-11T02:40:18;11.70;65.40
22923;DHT22;11627;51.322;22.816;2022-09-11T02:54:28;11.50;68.50
22923;DHT22;11627;51.322;22.816;2022-09-11T03:00:03;11.80;68.60
22923;DHT22;11627;51.322;22.816;2022-09-11T03:02:33;11.80;68.20
22923;DHT22;11627;51.322;22.816;2022-09-11T03:05:02;11.70;62.60
22923;DHT22;11627;51.322;22.816;2022-09-11T03:07:30;11.80;67.20
22923;DHT22;11627;51.322;22.816;2022-09-11T03:14:52;11.80;70.50
22923;DHT22;11627;51.322;22.816;2022-09-11T03:17:18;11.90;71.10
22923;DHT22;11627;51.322;22.816;2022-09-11T03:22:11;11.70;63.40
22923;DHT22;11627;51.322;22.816;2022-09-11T03:24:39;12.00;68.20
22923;DHT22;11627;51.322;22.816;2022-09-11T03:27:05;11.90;63.90
22923;DHT22;11627;51.322;22.816;2022-09-11T03:29:32;11.60;70.50
22923;DHT22;11627;51.322;22.816;2022-09-11T03:31:58;11.80;70.40
22923;DHT22;11627;51.322;22.816;2022-09-11T03:34:24;11.90;70.80
22923;DHT22;11627;51.322;22.816;2022-09-11T03:36:51;11.40;71.10
22923;DHT22;11627;51.322;22.816;2022-09-11T03:39:17;11.60;71.20
22923;DHT22;11627;51.322;22.816;2022-09-11T03:41:42;12.00;71.70
22923;DHT22;11627;51.322;22.816;2022-09-11T03:46:37;11.70;71.90
22923;DHT22;11627;51.322;22.816;2022-09-11T03:51:31;11.60;72.10
22923;DHT22;11627;51.322;22.816;2022-09-11T03:54:00;11.50;63.80
22923;DHT22;11627;51.322;22.816;2022-09-11T03:56:26;11.80;70.60
22923;DHT22;11627;51.322;22.816;2022-09-11T03:58:57;11.70;69.60
22923;DHT22;11627;51.322;22.816;2022-09-11T04:01:26;11.80;70.40
22923;DHT22;11627;51.322;22.816;2022-09-11T04:06:18;12.10;71.10
22923;DHT22;11627;51.322;22.816;2022-09-11T04:08:45;11.80;62.20
22923;DHT22;11627;51.322;22.816;2022-09-11T04:11:11;11.80;71.20
22923;DHT22;11627;51.322;22.816;2022-09-11T04:13:40;11.50;71.40
22923;DHT22;11627;51.322;22.816;2022-09-11T04:16:13;11.80;68.90
22923;DHT22;11627;51.322;22.816;2022-09-11T04:18:42;11.50;66.00
22923;DHT22;11627;51.322;22.816;2022-09-11T04:21:13;11.60;71.30
22923;DHT22;11627;51.322;22.816;2022-09-11T04:23:40;11.60;70.60
22923;DHT22;11627;51.322;22.816;2022-09-11T04:26:18;11.80;62.80
22923;DHT22;11627;51.322;22.816;2022-09-11T04:28:45;11.70;69.80
22923;DHT22;11627;51.322;22.816;2022-09-11T04:31:12;11.80;61.50
22923;DHT22;11627;51.322;22.816;2022-09-11T04:33:40;11.70;69.50
22923;DHT22;11627;51.322;22.816;2022-09-11T04:36:16;12.00;62.00
22923;DHT22;11627;51.322;22.816;2022-09-11T04:38:45;11.80;68.70
22923;DHT22;11627;51.322;22.816;2022-09-11T04:41:13;11.90;69.30
22923;DHT22;11627;51.322;22.816;2022-09-11T04:46:13;12.00;69.20
22923;DHT22;11627;51.322;22.816;2022-09-11T04:48:44;11.70;60.10
22923;DHT22;11627;51.322;22.816;2022-09-11T04:51:25;11.80;68.80
22923;DHT22;11627;51.322;22.816;2022-09-11T04:53:53;12.00;61.20
22923;DHT22;11627;51.322;22.816;2022-09-11T04:56:23;11.90;69.50
22923;DHT22;11627;51.322;22.816;2022-09-11T04:58:54;11.50;69.10
22923;DHT22;11627;51.322;22.816;2022-09-11T05:01:31;11.70;69.70
22923;DHT22;11627;51.322;22.816;2022-09-11T05:04:00;12.00;69.10
22923;DHT22;11627;51.322;22.816;2022-09-11T05:06:27;12.00;69.80
22923;DHT22;11627;51.322;22.816;2022-09-11T05:08:54;11.60;69.60
22923;DHT22;11627;51.322;22.816;2022-09-11T05:11:21;11.70;66.80
22923;DHT22;11627;51.322;22.816;2022-09-11T05:13:47;11.70;70.20
22923;DHT22;11627;51.322;22.816;2022-09-11T05:16:15;11.50;70.00
22923;DHT22;11627;51.322;22.816;2022-09-11T05:18:42;12.00;70.40
22923;DHT22;11627;51.322;22.816;2022-09-11T05:21:16;11.80;70.40
22923;DHT22;11627;51.322;22.816;2022-09-11T05:23:46;11.90;69.60
22923;DHT22;11627;51.322;22.816;2022-09-11T05:26:22;11.90;69.30
22923;DHT22;11627;51.322;22.816;2022-09-11T05:28:54;11.80;61.30
22923;DHT22;11627;51.322;22.816;2022-09-11T05:31:27;11.90;60.40
22923;DHT22;11627;51.322;22.816;2022-09-11T05:33:55;11.60;65.50
22923;DHT22;11627;51.322;22.816;2022-09-11T05:36:22;12.10;69.80
22923;DHT22;11627;51.322;22.816;2022-09-11T05:38:48;11.90;70.00
22923;DHT22;11627;51.322;22.816;2022-09-11T05:43:41;11.90;65.20
22923;DHT22;11627;51.322;22.816;2022-09-11T05:46:14;11.90;62.00
22923;DHT22;11627;51.322;22.816;2022-09-11T05:48:40;11.60;63.90
22923;DHT22;11627;51.322;22.816;2022-09-11T05:51:13;11.80;59.80
22923;DHT22;11627;51.322;22.816;2022-09-11T05:58:40;12.00;70.10
22923;DHT22;11627;51.322;22.816;2022-09-11T06:01:16;11.80;70.20
22923;DHT22;11627;51.322;22.816;2022-09-11T06:03:43;11.80;68.80
22923;DHT22;11627;51.322;22.816;2022-09-11T06:06:11;11.60;68.70
22923;DHT22;11627;51.322;22.816;2022-09-11T06:08:38;11.90;68.70
22923;DHT22;11627;51.322;22.816;2022-09-11T06:11:07;12.00;69.20
22923;DHT22;11627;51.322;22.816;2022-09-11T06:13:39;11.60;69.10
22923;DHT22;11627;51.322;22.816;2022-09-11T06:16:18;11.80;66.40
22923;DHT22;11627;51.322;22.816;2022-09-11T06:18:46;11.80;64.70
22923;DHT22;11627;51.322;22.816;2022-09-11T06:21:18;11.80;58.20
22923;DHT22;11627;51.322;22.816;2022-09-11T06:23:45;11.70;62.30
22923;DHT22;11627;51.322;22.816;2022-09-11T06:26:14;11.80;60.80
22923;DHT22;11627;51.322;22.816;2022-09-11T06:28:42;12.00;62.40
22923;DHT22;11627;51.322;22.816;2022-09-11T06:31:13;11.90;68.20
22923;DHT22;11627;51.322;22.816;2022-09-11T06:36:09;11.70;67.90
22923;DHT22;11627;51.322;22.816;2022-09-11T06:38:37;11.60;67.90
22923;DHT22;11627;51.322;22.816;2022-09-11T06:41:04;11.90;67.80
22923;DHT22;11627;51.322;22.816;2022-09-11T06:46:09;11.60;59.40
22923;DHT22;11627;51.322;22.816;2022-09-11T06:48:38;11.60;68.00
22923;DHT22;11627;51.322;22.816;2022-09-11T06:51:06;12.00;60.60
22923;DHT22;11627;51.322;22.816;2022-09-11T06:53:33;11.90;68.70
22923;DHT22;11627;51.322;22.816;2022-09-11T06:56:00;11.70;68.90
22923;DHT22;11627;51.322;22.816;2022-09-11T06:58:27;12.00;70.30
22923;DHT22;11627;51.322;22.816;2022-09-11T07:00:55;11.80;63.50
22923;DHT22;11627;51.322;22.816;2022-09-11T07:03:31;11.80;71.10
22923;DHT22;11627;51.322;22.816;2022-09-11T07:05:58;11.80;63.00
22923;DHT22;11627;51.322;22.816;2022-09-11T07:10:52;11.90;69.80
22923;DHT22;11627;51.322;22.816;2022-09-11T07:13:18;11.70;70.10
22923;DHT22;11627;51.322;22.816;2022-09-11T07:20:40;11.60;70.60
22923;DHT22;11627;51.322;22.816;2022-09-11T07:23:07;12.60;64.10
22923;DHT22;11627;51.322;22.816;2022-09-11T07:25:37;11.90;69.30
22923;DHT22;11627;51.322;22.816;2022-09-11T07:28:03;11.90;68.70
22923;DHT22;11627;51.322;22.816;2022-09-11T07:32:57;11.90;62.10
22923;DHT22;11627;51.322;22.816;2022-09-11T07:35:24;11.60;68.60
22923;DHT22;11627;51.322;22.816;2022-09-11T07:37:50;11.50;67.90
22923;DHT22;11627;51.322;22.816;2022-09-11T07:40:17;11.60;65.80
22923;DHT22;11627;51.322;22.816;2022-09-11T07:42:44;11.60;69.70
22923;DHT22;11627;51.322;22.816;2022-09-11T07:45:10;11.80;69.00
22923;DHT22;11627;51.322;22.816;2022-09-11T07:47:36;11.80;69.20
22923;DHT22;11627;51.322;22.816;2022-09-11T07:50:04;11.60;69.60
22923;DHT22;11627;51.322;22.816;2022-09-11T07:52:30;11.70;69.00
22923;DHT22;11627;51.322;22.816;2022-09-11T07:54:56;11.90;70.30
22923;DHT22;11627;51.322;22.816;2022-09-11T07:59:48;11.90;68.60
22923;DHT22;11627;51.322;22.816;2022-09-11T08:04:42;11.60;69.70
22923;DHT22;11627;51.322;22.816;2022-09-11T08:07:09;11.50;70.30
22923;DHT22;11627;51.322;22.816;2022-09-11T08:09:36;11.70;68.50
22923;DHT22;11627;51.322;22.816;2022-09-11T08:12:02;11.80;62.50
22923;DHT22;11627;51.322;22.816;2022-09-11T08:14:28;11.80;68.30
22923;DHT22;11627;51.322;22.816;2022-09-11T08:19:22;11.70;61.90
22923;DHT22;11627;51.322;22.816;2022-09-11T08:21:49;11.60;63.70
22923;DHT22;11627;51.322;22.816;2022-09-11T08:24:16;11.40;68.30
22923;DHT22;11627;51.322;22.816;2022-09-11T08:29:10;11.40;67.80
22923;DHT22;11627;51.322;22.816;2022-09-11T08:31:35;11.30;72.80
22923;DHT22;11627;51.322;22.816;2022-09-11T08:34:02;11.30;66.10
22923;DHT22;11627;51.322;22.816;2022-09-11T08:36:29;11.60;73.60
22923;DHT22;11627;51.322;22.816;2022-09-11T08:38:58;11.60;73.30
22923;DHT22;11627;51.322;22.816;2022-09-11T08:47:05;11.60;72.50
22923;DHT22;11627;51.322;22.816;2022-09-11T08:49:43;11.50;71.80
22923;DHT22;11627;51.322;22.816;2022-09-11T08:52:14;11.80;73.90
22923;DHT22;11627;51.322;22.816;2022-09-11T08:54:42;11.50;62.90
22923;DHT22;11627;51.322;22.816;2022-09-11T09:00:22;11.80;66.60
22923;DHT22;11627;51.322;22.816;2022-09-11T09:11:49;11.80;72.90
22923;DHT22;11627;51.322;22.816;2022-09-11T09:20:55;11.90;65.90
22923;DHT22;11627;51.322;22.816;2022-09-11T09:23:35;11.60;71.90
22923;DHT22;11627;51.322;22.816;2022-09-11T09:26:10;11.70;62.60
22923;DHT22;11627;51.322;22.816;2022-09-11T09:28:45;11.70;61.90
22923;DHT22;11627;51.322;22.816;2022-09-11T09:31:14;11.60;66.80
22923;DHT22;11627;51.322;22.816;2022-09-11T09:36:20;11.60;67.90
22923;DHT22;11627;51.322;22.816;2022-09-11T09:38:51;11.20;67.60
22923;DHT22;11627;51.322;22.816;2022-09-11T09:41:42;11.30;65.40
22923;DHT22;11627;51.322;22.816;2022-09-11T09:49:50;10.80;66.80
22923;DHT22;11627;51.322;22.816;2022-09-11T09:52:22;11.10;56.70
22923;DHT22;11627;51.322;22.816;2022-09-11T09:54:56;11.00;56.20
22923;DHT22;11627;51.322;22.816;2022-09-11T09:57:34;11.20;68.60
22923;DHT22;11627;51.322;22.816;2022-09-11T10:05:26;11.30;70.80
22923;DHT22;11627;51.322;22.816;2022-09-11T10:08:02;10.80;70.00
22923;DHT22;11627;51.322;22.816;2022-09-11T10:13:02;11.20;62.40
22923;DHT22;11627;51.322;22.816;2022-09-11T10:15:36;11.40;63.50
22923;DHT22;11627;51.322;22.816;2022-09-11T10:29:25;11.50;71.80
22923;DHT22;11627;51.322;22.816;2022-09-11T10:31:58;11.30;68.00
22923;DHT22;11627;51.322;22.816;2022-09-11T10:34:33;10.90;56.60
22923;DHT22;11627;51.322;22.816;2022-09-11T10:39:41;10.80;70.10
22923;DHT22;11627;51.322;22.816;2022-09-11T10:44:49;11.10;72.30
22923;DHT22;11627;51.322;22.816;2022-09-11T10:57:43;10.80;65.30
22923;DHT22;11627;51.322;22.816;2022-09-11T11:00:27;10.60;74.50
22923;DHT22;11627;51.322;22.816;2022-09-11T11:05:46;10.90;75.90
22923;DHT22;11627;51.322;22.816;2022-09-11T11:33:35;10.70;76.90
22923;DHT22;11627;51.322;22.816;2022-09-11T11:41:54;10.40;75.80
22923;DHT22;11627;51.322;22.816;2022-09-11T11:44:44;10.70;72.60
22923;DHT22;11627;51.322;22.816;2022-09-11T11:47:17;10.40;67.10
22923;DHT22;11627;51.322;22.816;2022-09-11T11:50:05;10.40;72.80
22923;DHT22;11627;51.322;22.816;2022-09-11T11:52:42;10.70;72.50
22923;DHT22;11627;51.322;22.816;2022-09-11T11:55:22;10.60;72.60
22923;DHT22;11627;51.322;22.816;2022-09-11T11:58:05;10.50;71.10
22923;DHT22;11627;51.322;22.816;2022-09-11T12:00:42;10.60;71.30
22923;DHT22;11627;51.322;22.816;2022-09-11T12:03:19;10.30;71.70
22923;DHT22;11627;51.322;22.816;2022-09-11T12:05:49;10.50;71.50
22923;DHT22;11627;51.322;22.816;2022-09-11T12:11:00;10.00;63.40
22923;DHT22;11627;51.322;22.816;2022-09-11T12:13:33;10.10;65.70
22923;DHT22;11627;51.322;22.816;2022-09-11T12:18:30;10.30;60.80
22923;DHT22;11627;51.322;22.816;2022-09-11T12:26:27;10.20;71.60
22923;DHT22;11627;51.322;22.816;2022-09-11T12:34:26;10.30;73.80
22923;DHT22;11627;51.322;22.816;2022-09-11T12:37:34;10.20;73.50
22923;DHT22;11627;51.322;22.816;2022-09-11T12:40:15;10.20;73.60
22923;DHT22;11627;51.322;22.816;2022-09-11T12:42:45;10.20;62.10
22923;DHT22;11627;51.322;22.816;2022-09-11T12:45:49;10.00;73.30
22923;DHT22;11627;51.322;22.816;2022-09-11T12:48:18;10.20;73.20
22923;DHT22;11627;51.322;22.816;2022-09-11T12:50:54;9.90;73.40
22923;DHT22;11627;51.322;22.816;2022-09-11T12:53:27;10.00;64.60
22923;DHT22;11627;51.322;22.816;2022-09-11T12:56:00;10.20;74.80
22923;DHT22;11627;51.322;22.816;2022-09-11T12:58:34;10.10;64.20
22923;DHT22;11627;51.322;22.816;2022-09-11T13:06:53;10.20;71.90
22923;DHT22;11627;51.322;22.816;2022-09-11T13:09:33;10.20;70.50
22923;DHT22;11627;51.322;22.816;2022-09-11T13:14:56;10.10;53.30
22923;DHT22;11627;51.322;22.816;2022-09-11T13:17:28;10.20;63.00
22923;DHT22;11627;51.322;22.816;2022-09-11T13:22:34;9.70;63.00
22923;DHT22;11627;51.322;22.816;2022-09-11T13:25:20;9.90;52.50
22923;DHT22;11627;51.322;22.816;2022-09-11T13:27:53;9.80;63.90
22923;DHT22;11627;51.322;22.816;2022-09-11T13:30:22;12.50;56.20
22923;DHT22;11627;51.322;22.816;2022-09-11T13:33:04;10.10;67.20
22923;DHT22;11627;51.322;22.816;2022-09-11T13:35:32;9.90;57.20
22923;DHT22;11627;51.322;22.816;2022-09-11T13:38:04;9.90;66.90
22923;DHT22;11627;51.322;22.816;2022-09-11T13:43:16;9.70;66.80
22923;DHT22;11627;51.322;22.816;2022-09-11T13:45:45;9.80;62.40
22923;DHT22;11627;51.322;22.816;2022-09-11T13:50:12;9.80;58.10
22923;DHT22;11627;51.322;22.816;2022-09-11T13:52:41;9.80;59.40
22923;DHT22;11627;51.322;22.816;2022-09-11T13:55:22;9.80;69.90
22923;DHT22;11627;51.322;22.816;2022-09-11T13:57:59;10.00;72.40
22923;DHT22;11627;51.322;22.816;2022-09-11T14:00:44;9.70;72.30
22923;DHT22;11627;51.322;22.816;2022-09-11T14:03:26;9.70;67.20
22923;DHT22;11627;51.322;22.816;2022-09-11T14:06:02;9.70;74.20
22923;DHT22;11627;51.322;22.816;2022-09-11T14:11:12;10.10;72.70
22923;DHT22;11627;51.322;22.816;2022-09-11T14:16:29;9.90;64.50
22923;DHT22;11627;51.322;22.816;2022-09-11T14:19:06;9.90;65.30
22923;DHT22;11627;51.322;22.816;2022-09-11T14:21:35;10.00;76.50
22923;DHT22;11627;51.322;22.816;2022-09-11T14:24:03;9.80;76.10
22923;DHT22;11627;51.322;22.816;2022-09-11T14:26:41;9.90;76.60
22923;DHT22;11627;51.322;22.816;2022-09-11T14:31:54;9.80;69.90
22923;DHT22;11627;51.322;22.816;2022-09-11T14:34:54;10.10;76.90
22923;DHT22;11627;51.322;22.816;2022-09-11T14:37:22;10.10;77.80
22923;DHT22;11627;51.322;22.816;2022-09-11T14:40:00;10.00;66.60
22923;DHT22;11627;51.322;22.816;2022-09-11T14:42:41;9.90;78.50
22923;DHT22;11627;51.322;22.816;2022-09-11T14:45:20;10.10;78.10
22923;DHT22;11627;51.322;22.816;2022-09-11T14:47:48;10.10;75.80
22923;DHT22;11627;51.322;22.816;2022-09-11T14:50:15;10.30;77.10
22923;DHT22;11627;51.322;22.816;2022-09-11T14:52:41;10.20;72.40
22923;DHT22;11627;51.322;22.816;2022-09-11T14:55:19;10.00;77.30
22923;DHT22;11627;51.322;22.816;2022-09-11T14:57:45;10.30;68.60
22923;DHT22;11627;51.322;22.816;2022-09-11T15:00:13;10.20;66.70
22923;DHT22;11627;51.322;22.816;2022-09-11T15:02:41;10.10;69.80
22923;DHT22;11627;51.322;22.816;2022-09-11T15:05:24;10.10;77.60
22923;DHT22;11627;51.322;22.816;2022-09-11T15:07:51;10.30;77.60
22923;DHT22;11627;51.322;22.816;2022-09-11T15:10:17;10.20;76.60
22923;DHT22;11627;51.322;22.816;2022-09-11T15:12:43;10.50;75.90
22923;DHT22;11627;51.322;22.816;2022-09-11T15:15:09;10.20;73.40
22923;DHT22;11627;51.322;22.816;2022-09-11T15:17:35;10.50;76.30
22923;DHT22;11627;51.322;22.816;2022-09-11T15:20:03;10.40;77.80
22923;DHT22;11627;51.322;22.816;2022-09-11T15:24:57;10.30;77.20
22923;DHT22;11627;51.322;22.816;2022-09-11T15:27:24;10.10;77.30
22923;DHT22;11627;51.322;22.816;2022-09-11T15:29:50;10.40;77.80
22923;DHT22;11627;51.322;22.816;2022-09-11T15:32:17;10.50;78.10
22923;DHT22;11627;51.322;22.816;2022-09-11T15:34:42;10.30;77.30
22923;DHT22;11627;51.322;22.816;2022-09-11T15:37:11;10.20;78.60
22923;DHT22;11627;51.322;22.816;2022-09-11T15:39:37;10.70;78.00
22923;DHT22;11627;51.322;22.816;2022-09-11T15:42:03;10.60;78.00
22923;DHT22;11627;51.322;22.816;2022-09-11T15:44:34;10.70;78.70
22923;DHT22;11627;51.322;22.816;2022-09-11T15:49:29;10.40;77.10
22923;DHT22;11627;51.322;22.816;2022-09-11T15:51:56;10.90;77.80
22923;DHT22;11627;51.322;22.816;2022-09-11T15:54:25;10.50;77.30
22923;DHT22;11627;51.322;22.816;2022-09-11T15:56:51;10.60;77.60
22923;DHT22;11627;51.322;22.816;2022-09-11T15:59:17;10.40;78.70
22923;DHT22;11627;51.322;22.816;2022-09-11T16:01:43;10.40;78.30
22923;DHT22;11627;51.322;22.816;2022-09-11T16:04:11;10.70;79.20
22923;DHT22;11627;51.322;22.816;2022-09-11T16:06:42;10.50;79.20
22923;DHT22;11627;51.322;22.816;2022-09-11T16:09:19;10.30;80.10
22923;DHT22;11627;51.322;22.816;2022-09-11T16:11:47;10.60;77.70
22923;DHT22;11627;51.322;22.816;2022-09-11T16:14:26;10.60;80.60
22923;DHT22;11627;51.322;22.816;2022-09-11T16:16:55;10.40;79.60
22923;DHT22;11627;51.322;22.816;2022-09-11T16:19:24;10.70;79.60
22923;DHT22;11627;51.322;22.816;2022-09-11T16:21:53;10.40;79.30
22923;DHT22;11627;51.322;22.816;2022-09-11T16:24:25;10.60;70.50
22923;DHT22;11627;51.322;22.816;2022-09-11T16:26:54;10.70;78.80
22923;DHT22;11627;51.322;22.816;2022-09-11T16:29:23;10.80;79.10
22923;DHT22;11627;51.322;22.816;2022-09-11T16:31:53;10.70;78.20
22923;DHT22;11627;51.322;22.816;2022-09-11T16:34:19;10.70;78.60
22923;DHT22;11627;51.322;22.816;2022-09-11T16:39:14;10.60;69.40
22923;DHT22;11627;51.322;22.816;2022-09-11T16:41:43;10.80;79.50
22923;DHT22;11627;51.322;22.816;2022-09-11T16:44:12;10.90;79.00
22923;DHT22;11627;51.322;22.816;2022-09-11T16:46:39;10.70;78.20
22923;DHT22;11627;51.322;22.816;2022-09-11T16:49:06;10.80;77.80
22923;DHT22;11627;51.322;22.816;2022-09-11T16:51:33;10.80;72.50
22923;DHT22;11627;51.322;22.816;2022-09-11T16:53:59;10.70;78.70
22923;DHT22;11627;51.322;22.816;2022-09-11T16:56:26;11.00;78.90
22923;DHT22;11627;51.322;22.816;2022-09-11T16:58:53;10.90;78.30
22923;DHT22;11627;51.322;22.816;2022-09-11T17:01:24;10.80;78.80
22923;DHT22;11627;51.322;22.816;2022-09-11T17:03:54;10.50;78.20
22923;DHT22;11627;51.322;22.816;2022-09-11T17:06:23;10.40;76.80
22923;DHT22;11627;51.322;22.816;2022-09-11T17:08:55;10.50;76.30
22923;DHT22;11627;51.322;22.816;2022-09-11T17:13:50;10.40;76.60
22923;DHT22;11627;51.322;22.816;2022-09-11T17:16:20;10.70;76.90
22923;DHT22;11627;51.322;22.816;2022-09-11T17:18:50;10.80;77.00
22923;DHT22;11627;51.322;22.816;2022-09-11T17:21:21;10.30;76.50
22923;DHT22;11627;51.322;22.816;2022-09-11T17:23:51;10.50;77.80
22923;DHT22;11627;51.322;22.816;2022-09-11T17:26:18;10.70;78.20
22923;DHT22;11627;51.322;22.816;2022-09-11T17:28:46;10.20;68.00
22923;DHT22;11627;51.322;22.816;2022-09-11T17:31:14;10.40;78.10
22923;DHT22;11627;51.322;22.816;2022-09-11T17:33:43;10.50;68.10
22923;DHT22;11627;51.322;22.816;2022-09-11T17:36:11;10.20;77.60
22923;DHT22;11627;51.322;22.816;2022-09-11T17:38:39;10.40;68.10
22923;DHT22;11627;51.322;22.816;2022-09-11T17:41:07;10.30;77.70
22923;DHT22;11627;51.322;22.816;2022-09-11T17:43:34;10.60;69.10
22923;DHT22;11627;51.322;22.816;2022-09-11T17:46:07;10.30;66.30
22923;DHT22;11627;51.322;22.816;2022-09-11T17:48:35;10.80;77.80
22923;DHT22;11627;51.322;22.816;2022-09-11T17:51:17;10.30;75.00
22923;DHT22;11627;51.322;22.816;2022-09-11T17:53:47;10.30;67.00
22923;DHT22;11627;51.322;22.816;2022-09-11T17:56:19;10.30;77.50
22923;DHT22;11627;51.322;22.816;2022-09-11T17:58:53;10.20;77.30
22923;DHT22;11627;51.322;22.816;2022-09-11T18:01:21;10.20;77.90
22923;DHT22;11627;51.322;22.816;2022-09-11T18:03:58;10.30;67.70
22923;DHT22;11627;51.322;22.816;2022-09-11T18:06:29;10.20;67.50
22923;DHT22;11627;51.322;22.816;2022-09-11T18:09:06;10.50;76.40
22923;DHT22;11627;51.322;22.816;2022-09-11T18:11:39;10.50;76.60
22923;DHT22;11627;51.322;22.816;2022-09-11T18:14:08;10.40;75.20
22923;DHT22;11627;51.322;22.816;2022-09-11T18:16:35;10.80;67.70
22923;DHT22;11627;51.322;22.816;2022-09-11T18:19:01;10.30;74.70
22923;DHT22;11627;51.322;22.816;2022-09-11T18:21:29;10.20;74.70
22923;DHT22;11627;51.322;22.816;2022-09-11T18:23:57;10.50;68.40
22923;DHT22;11627;51.322;22.816;2022-09-11T18:26:26;10.20;64.50
22923;DHT22;11627;51.322;22.816;2022-09-11T18:29:00;10.10;74.80
22923;DHT22;11627;51.322;22.816;2022-09-11T18:31:32;10.20;74.20
22923;DHT22;11627;51.322;22.816;2022-09-11T18:36:30;10.10;73.70
22923;DHT22;11627;51.322;22.816;2022-09-11T18:38:58;10.40;75.40
22923;DHT22;11627;51.322;22.816;2022-09-11T18:41:26;10.30;74.30
22923;DHT22;11627;51.322;22.816;2022-09-11T18:43:54;10.20;74.00
22923;DHT22;11627;51.322;22.816;2022-09-11T18:46:20;10.30;74.40
22923;DHT22;11627;51.322;22.816;2022-09-11T18:48:47;10.10;74.90
22923;DHT22;11627;51.322;22.816;2022-09-11T18:51:18;10.20;76.10
22923;DHT22;11627;51.322;22.816;2022-09-11T18:53:48;9.90;76.10
22923;DHT22;11627;51.322;22.816;2022-09-11T18:56:20;10.00;76.70
22923;DHT22;11627;51.322;22.816;2022-09-11T18:58:47;10.00;75.80
22923;DHT22;11627;51.322;22.816;2022-09-11T19:01:16;10.00;76.40
22923;DHT22;11627;51.322;22.816;2022-09-11T19:03:44;10.30;77.10
22923;DHT22;11627;51.322;22.816;2022-09-11T19:06:13;9.90;76.10
22923;DHT22;11627;51.322;22.816;2022-09-11T19:08:42;10.00;69.70
22923;DHT22;11627;51.322;22.816;2022-09-11T19:11:15;10.00;68.90
22923;DHT22;11627;51.322;22.816;2022-09-11T19:13:46;10.10;67.60
22923;DHT22;11627;51.322;22.816;2022-09-11T19:16:13;10.30;75.30
22923;DHT22;11627;51.322;22.816;2022-09-11T19:18:40;10.20;75.50
22923;DHT22;11627;51.322;22.816;2022-09-11T19:21:18;10.00;74.90
22923;DHT22;11627;51.322;22.816;2022-09-11T19:23:57;10.20;76.00
22923;DHT22;11627;51.322;22.816;2022-09-11T19:26:29;10.20;65.90
22923;DHT22;11627;51.322;22.816;2022-09-11T19:28:57;10.00;67.50
22923;DHT22;11627;51.322;22.816;2022-09-11T19:31:25;10.20;75.40
22923;DHT22;11627;51.322;22.816;2022-09-11T19:33:55;10.00;75.20
22923;DHT22;11627;51.322;22.816;2022-09-11T19:36:26;10.20;75.80
22923;DHT22;11627;51.322;22.816;2022-09-11T19:43:06;10.00;74.60
22923;DHT22;11627;51.322;22.816;2022-09-11T19:45:31;10.40;74.10
22923;DHT22;11627;51.322;22.816;2022-09-11T19:47:58;10.10;66.90
22923;DHT22;11627;51.322;22.816;2022-09-11T19:50:23;10.10;67.00
22923;DHT22;11627;51.322;22.816;2022-09-11T19:55:12;10.30;74.00
22923;DHT22;11627;51.322;22.816;2022-09-11T20:00:04;10.40;74.10
22923;DHT22;11627;51.322;22.816;2022-09-11T20:02:31;10.10;73.40